Time;durP1;ratioP1;P1;durP2;ratioP2;P2;SDS_P1;SDS_P2;PMS_P1;PMS_P2;Temp;Humidity;BMP_temperature;BMP_pressure;BME280_temperature;BME280_humidity;BME280_pressure;Samples;Min_cycle;Max_cycle;Signal;HPM_P1;HPM_P2
2022/10/15 00:01:36;;;;;;;;;;;17.00;99.90;;;;;;5033602;28;19991;-23
2022/10/15 00:04:01;;;;;;;;;;;17.10;99.90;;;;;;5033806;28;19905;-23
2022/10/15 00:06:27;;;;;;;;;;;17.00;99.90;;;;;;5033562;28;19932;-23
2022/10/15 00:08:52;;;;;;;;;;;17.00;99.90;;;;;;5033307;28;19905;-24
2022/10/15 00:11:20;;;;;;;;;;;17.00;99.90;;;;;;5033267;28;20396;-23
2022/10/15 00:13:45;;;;;;;;;;;17.00;99.90;;;;;;5033325;28;20370;-23
2022/10/15 00:16:13;;;;;;;;;;;17.00;99.90;;;;;;5031898;28;19911;-23
2022/10/15 00:18:39;;;;;;;;;;;17.00;99.90;;;;;;5033269;28;20258;-23
2022/10/15 00:21:06;;;;;;;;;;;17.00;99.90;;;;;;5033185;28;19912;-23
2022/10/15 00:23:31;;;;;;;;;;;17.00;99.90;;;;;;5032712;28;19956;-23
2022/10/15 00:26:05;;;;;;;;;;;17.00;99.90;;;;;;5033409;28;19944;-23
2022/10/15 00:28:30;;;;;;;;;;;17.00;99.90;;;;;;5033037;28;19911;-24
2022/10/15 00:31:00;;;;;;;;;;;17.10;99.90;;;;;;5033546;28;19999;-24
2022/10/15 00:33:25;;;;;;;;;;;17.10;99.90;;;;;;5033591;28;20279;-24
2022/10/15 00:35:57;;;;;;;;;;;17.00;99.90;;;;;;5033501;28;19905;-23
2022/10/15 00:38:23;;;;;;;;;;;17.00;99.90;;;;;;5033621;28;19940;-23
2022/10/15 00:40:48;;;;;;;;;;;17.00;99.90;;;;;;5032807;28;19921;-23
2022/10/15 00:43:14;;;;;;;;;;;17.00;99.90;;;;;;5032870;28;19905;-24
2022/10/15 00:45:39;;;;;;;;;;;17.00;99.90;;;;;;5032347;28;19905;-24
2022/10/15 00:48:06;;;;;;;;;;;17.00;99.90;;;;;;5033762;28;19975;-24
2022/10/15 00:50:32;;;;;;;;;;;17.00;99.90;;;;;;5032568;28;20359;-23
2022/10/15 00:53:03;;;;;;;;;;;17.00;99.90;;;;;;5032214;28;19908;-23
2022/10/15 00:55:30;;;;;;;;;;;17.00;99.90;;;;;;5032672;28;19937;-23
2022/10/15 00:57:57;;;;;;;;;;;17.00;99.90;;;;;;5032503;28;19947;-23
2022/10/15 01:00:23;;;;;;;;;;;17.00;99.90;;;;;;5032657;28;19948;-24
2022/10/15 01:02:48;;;;;;;;;;;17.00;99.90;;;;;;5033566;28;19923;-23
2022/10/15 01:05:15;;;;;;;;;;;17.00;99.90;;;;;;5032276;28;19933;-23
2022/10/15 01:07:40;;;;;;;;;;;17.00;99.90;;;;;;5032394;28;19999;-24
2022/10/15 01:10:06;;;;;;;;;;;17.00;99.90;;;;;;5032393;28;19995;-23
2022/10/15 01:12:41;;;;;;;;;;;17.00;99.90;;;;;;5031792;28;20023;-24
2022/10/15 01:15:23;;;;;;;;;;;16.90;99.90;;;;;;5032263;28;19912;-23
2022/10/15 01:17:55;;;;;;;;;;;17.00;99.90;;;;;;5031978;28;20432;-24
2022/10/15 01:20:39;;;;;;;;;;;17.00;99.90;;;;;;5032546;28;20195;-24
2022/10/15 01:23:23;;;;;;;;;;;17.00;99.90;;;;;;5031657;28;19944;-23
2022/10/15 01:25:48;;;;;;;;;;;17.00;99.90;;;;;;5032515;28;19909;-24
2022/10/15 01:28:26;;;;;;;;;;;17.00;99.90;;;;;;5031938;28;19912;-23
2022/10/15 01:30:57;;;;;;;;;;;17.00;99.90;;;;;;5032095;28;19963;-23
2022/10/15 01:33:26;;;;;;;;;;;17.00;99.90;;;;;;5031565;28;19916;-23
2022/10/15 01:36:14;;;;;;;;;;;17.00;99.90;;;;;;5033346;28;19912;-23
2022/10/15 01:39:02;;;;;;;;;;;17.00;99.90;;;;;;5026508;28;19909;-23
2022/10/15 01:41:45;;;;;;;;;;;16.90;99.90;;;;;;5031743;28;19943;-23
2022/10/15 01:44:20;;;;;;;;;;;16.90;99.90;;;;;;5031382;28;19905;-23
2022/10/15 01:47:06;;;;;;;;;;;17.00;99.90;;;;;;5031634;28;19905;-23
2022/10/15 01:49:37;;;;;;;;;;;17.00;99.90;;;;;;5031253;28;19944;-23
2022/10/15 01:52:07;;;;;;;;;;;16.90;99.90;;;;;;5031727;28;20003;-23
2022/10/15 01:54:33;;;;;;;;;;;16.90;99.90;;;;;;5031396;28;19905;-23
2022/10/15 01:56:58;;;;;;;;;;;17.00;99.90;;;;;;5030784;28;19913;-23
2022/10/15 01:59:26;;;;;;;;;;;16.90;99.90;;;;;;5031463;28;20358;-23
2022/10/15 02:01:52;;;;;;;;;;;16.90;99.90;;;;;;5031610;28;19952;-23
2022/10/15 02:04:28;;;;;;;;;;;16.90;99.90;;;;;;5031622;28;19909;-23
2022/10/15 02:07:00;;;;;;;;;;;16.90;99.90;;;;;;5034362;28;19999;-23
2022/10/15 02:09:33;;;;;;;;;;;16.90;99.90;;;;;;5032324;28;20366;-23
2022/10/15 02:12:21;;;;;;;;;;;16.90;99.90;;;;;;5029823;28;19917;-23
2022/10/15 02:14:53;;;;;;;;;;;16.90;99.90;;;;;;5031051;28;19905;-23
2022/10/15 02:17:23;;;;;;;;;;;16.90;99.90;;;;;;5031375;28;19913;-23
2022/10/15 02:19:55;;;;;;;;;;;16.90;99.90;;;;;;5031457;28;20003;-23
2022/10/15 02:22:24;;;;;;;;;;;16.90;99.90;;;;;;5031116;28;20423;-24
2022/10/15 02:24:52;;;;;;;;;;;16.90;99.90;;;;;;5031085;28;20348;-23
2022/10/15 02:27:19;;;;;;;;;;;16.90;99.90;;;;;;5031333;28;19947;-23
2022/10/15 02:29:45;;;;;;;;;;;16.90;99.90;;;;;;5031405;28;19947;-24
2022/10/15 02:32:11;;;;;;;;;;;16.90;99.90;;;;;;5031174;28;19939;-23
2022/10/15 02:34:38;;;;;;;;;;;16.90;99.90;;;;;;5030945;28;20313;-23
2022/10/15 02:37:04;;;;;;;;;;;16.90;99.90;;;;;;5031209;28;19909;-23
2022/10/15 02:39:30;;;;;;;;;;;16.90;99.90;;;;;;5031129;28;20310;-24
2022/10/15 02:41:56;;;;;;;;;;;16.90;99.90;;;;;;5031020;28;19923;-23
2022/10/15 02:44:21;;;;;;;;;;;16.90;99.90;;;;;;5030787;28;19966;-23
2022/10/15 02:46:47;;;;;;;;;;;16.90;99.90;;;;;;5031374;28;19997;-24
2022/10/15 02:49:12;;;;;;;;;;;16.90;99.90;;;;;;5030967;28;19935;-23
2022/10/15 02:51:38;;;;;;;;;;;16.90;99.90;;;;;;5030858;28;19905;-23
2022/10/15 02:54:04;;;;;;;;;;;16.90;99.90;;;;;;5030771;28;20011;-24
2022/10/15 02:56:30;;;;;;;;;;;16.90;99.90;;;;;;5031026;28;19905;-23
2022/10/15 02:58:55;;;;;;;;;;;16.90;99.90;;;;;;5030886;28;19905;-23
2022/10/15 03:01:21;;;;;;;;;;;16.90;99.90;;;;;;5030977;28;20359;-23
2022/10/15 03:03:46;;;;;;;;;;;16.90;99.90;;;;;;5030656;28;19970;-23
2022/10/15 03:06:12;;;;;;;;;;;16.90;99.90;;;;;;5030841;28;19960;-23
2022/10/15 03:08:38;;;;;;;;;;;16.90;99.90;;;;;;5034109;28;19909;-23
2022/10/15 03:11:03;;;;;;;;;;;16.90;99.90;;;;;;5034701;28;19955;-23
2022/10/15 03:13:29;;;;;;;;;;;16.90;99.90;;;;;;5034111;28;20327;-23
2022/10/15 03:15:54;;;;;;;;;;;16.90;99.90;;;;;;5034839;28;19995;-23
2022/10/15 03:18:20;;;;;;;;;;;16.90;99.90;;;;;;5034426;28;19912;-23
2022/10/15 03:20:52;;;;;;;;;;;16.90;99.90;;;;;;5034240;28;19905;-23
2022/10/15 03:23:18;;;;;;;;;;;16.90;99.90;;;;;;5033799;28;19917;-23
2022/10/15 03:25:43;;;;;;;;;;;16.90;99.90;;;;;;5034203;28;19911;-23
2022/10/15 03:28:09;;;;;;;;;;;16.90;99.90;;;;;;5034092;28;19905;-23
2022/10/15 03:30:34;;;;;;;;;;;16.90;99.90;;;;;;5034108;28;19912;-23
2022/10/15 03:33:00;;;;;;;;;;;16.90;99.90;;;;;;5033672;28;20362;-23
2022/10/15 03:35:25;;;;;;;;;;;16.90;99.90;;;;;;5034269;28;19909;-24
2022/10/15 03:37:50;;;;;;;;;;;16.90;99.90;;;;;;5034031;28;19984;-23
2022/10/15 03:40:17;;;;;;;;;;;16.90;99.90;;;;;;5033924;28;20347;-23
2022/10/15 03:42:42;;;;;;;;;;;16.90;99.90;;;;;;5033567;28;19904;-23
2022/10/15 03:45:08;;;;;;;;;;;16.90;99.90;;;;;;5033904;28;20373;-23
2022/10/15 03:47:34;;;;;;;;;;;16.90;99.90;;;;;;5033806;28;20012;-23
2022/10/15 03:49:59;;;;;;;;;;;16.90;99.90;;;;;;5033822;28;19909;-23
2022/10/15 03:52:25;;;;;;;;;;;16.90;99.90;;;;;;5033449;28;19916;-23
2022/10/15 03:54:50;;;;;;;;;;;16.90;99.90;;;;;;5033668;28;19905;-23
2022/10/15 03:57:16;;;;;;;;;;;16.90;99.90;;;;;;5033618;28;19912;-23
2022/10/15 03:59:42;;;;;;;;;;;16.90;99.90;;;;;;5033528;28;20351;-23
2022/10/15 04:02:07;;;;;;;;;;;16.90;99.90;;;;;;5033490;28;19951;-23
2022/10/15 04:04:33;;;;;;;;;;;16.90;99.90;;;;;;5033208;28;19912;-23
2022/10/15 04:06:58;;;;;;;;;;;16.90;99.90;;;;;;5033491;28;19909;-23
2022/10/15 04:09:24;;;;;;;;;;;16.90;99.90;;;;;;5033374;28;19912;-23
2022/10/15 04:11:49;;;;;;;;;;;16.90;99.90;;;;;;5033297;28;20409;-23
2022/10/15 04:14:15;;;;;;;;;;;16.90;99.90;;;;;;5032951;28;19968;-23
2022/10/15 04:16:40;;;;;;;;;;;16.90;99.90;;;;;;5033283;28;19996;-23
2022/10/15 04:19:06;;;;;;;;;;;16.90;99.90;;;;;;5032403;28;19916;-23
2022/10/15 04:21:31;;;;;;;;;;;16.90;99.90;;;;;;5033250;28;19905;-24
2022/10/15 04:23:57;;;;;;;;;;;16.90;99.90;;;;;;5032770;28;19913;-24
2022/10/15 04:26:22;;;;;;;;;;;16.90;99.90;;;;;;5033043;28;20357;-24
2022/10/15 04:28:48;;;;;;;;;;;16.90;99.90;;;;;;5033063;28;19908;-23
2022/10/15 04:31:14;;;;;;;;;;;16.90;99.90;;;;;;5033020;28;19905;-23
2022/10/15 04:33:40;;;;;;;;;;;16.90;99.90;;;;;;5032450;28;19915;-23
2022/10/15 04:36:06;;;;;;;;;;;16.90;99.90;;;;;;5033140;28;19904;-23
2022/10/15 04:38:32;;;;;;;;;;;16.80;99.90;;;;;;5032820;28;19913;-22
2022/10/15 04:40:59;;;;;;;;;;;16.80;99.90;;;;;;5032822;28;20405;-23
2022/10/15 04:43:25;;;;;;;;;;;16.90;99.90;;;;;;5032369;28;19937;-23
2022/10/15 04:45:50;;;;;;;;;;;16.90;99.90;;;;;;5031562;28;19936;-23
2022/10/15 04:48:16;;;;;;;;;;;16.90;99.90;;;;;;5032670;28;19962;-23
2022/10/15 04:50:43;;;;;;;;;;;16.90;99.90;;;;;;5034129;28;19906;-23
2022/10/15 04:53:09;;;;;;;;;;;16.80;99.90;;;;;;5033533;28;20421;-23
2022/10/15 04:55:34;;;;;;;;;;;16.90;99.90;;;;;;5033444;28;20091;-23
2022/10/15 04:58:00;;;;;;;;;;;16.80;99.90;;;;;;5032378;28;19905;-23
2022/10/15 05:00:25;;;;;;;;;;;16.80;99.90;;;;;;5032818;28;19905;-24
2022/10/15 05:02:51;;;;;;;;;;;16.80;99.90;;;;;;5032216;28;19909;-23
2022/10/15 05:05:16;;;;;;;;;;;16.90;99.90;;;;;;5032468;28;20359;-23
2022/10/15 05:07:42;;;;;;;;;;;16.80;99.90;;;;;;5032379;28;19951;-23
2022/10/15 05:10:07;;;;;;;;;;;16.80;99.90;;;;;;5030878;28;20322;-23
2022/10/15 05:12:33;;;;;;;;;;;16.90;99.90;;;;;;5030756;28;20334;-23
2022/10/15 05:14:58;;;;;;;;;;;16.80;99.90;;;;;;5032447;28;19913;-23
2022/10/15 05:17:24;;;;;;;;;;;16.80;99.90;;;;;;5032385;28;20011;-23
2022/10/15 05:19:49;;;;;;;;;;;16.80;99.90;;;;;;5031419;28;20297;-23
2022/10/15 05:22:15;;;;;;;;;;;16.90;99.90;;;;;;5032371;28;19905;-23
2022/10/15 05:24:40;;;;;;;;;;;16.80;99.90;;;;;;5033695;28;19913;-23
2022/10/15 05:27:06;;;;;;;;;;;16.90;99.90;;;;;;5036143;28;19905;-23
2022/10/15 05:29:32;;;;;;;;;;;16.90;99.90;;;;;;5033715;28;19905;-23
2022/10/15 05:31:57;;;;;;;;;;;16.90;99.90;;;;;;5032057;28;19909;-23
2022/10/15 05:34:25;;;;;;;;;;;16.90;99.90;;;;;;5031683;28;19912;-23
2022/10/15 05:36:51;;;;;;;;;;;16.90;99.90;;;;;;5032488;28;19909;-23
2022/10/15 05:39:16;;;;;;;;;;;16.80;99.90;;;;;;5031914;28;19905;-23
2022/10/15 05:41:42;;;;;;;;;;;16.80;99.90;;;;;;5032057;28;20317;-23
2022/10/15 05:44:07;;;;;;;;;;;16.80;99.90;;;;;;5031301;28;20457;-23
2022/10/15 05:46:33;;;;;;;;;;;16.80;99.90;;;;;;5031722;28;19909;-23
2022/10/15 05:48:59;;;;;;;;;;;16.80;99.90;;;;;;5031606;28;19909;-23
2022/10/15 05:51:25;;;;;;;;;;;16.80;99.90;;;;;;5031923;28;19905;-23
2022/10/15 05:53:51;;;;;;;;;;;16.80;99.90;;;;;;5031312;28;20329;-23
2022/10/15 05:56:17;;;;;;;;;;;16.80;99.90;;;;;;5031628;28;19905;-23
2022/10/15 05:58:42;;;;;;;;;;;16.80;99.90;;;;;;5031602;28;19912;-23
2022/10/15 06:01:09;;;;;;;;;;;16.80;99.90;;;;;;5031418;28;20333;-23
2022/10/15 06:03:35;;;;;;;;;;;16.80;99.90;;;;;;5029870;28;20366;-23
2022/10/15 06:06:01;;;;;;;;;;;16.80;99.90;;;;;;5031457;28;19905;-23
2022/10/15 06:08:27;;;;;;;;;;;16.80;99.90;;;;;;5031468;28;20299;-23
2022/10/15 06:10:53;;;;;;;;;;;16.80;99.90;;;;;;5031336;28;20359;-23
2022/10/15 06:13:18;;;;;;;;;;;16.80;99.90;;;;;;5030867;28;19920;-23
2022/10/15 06:15:44;;;;;;;;;;;16.80;99.90;;;;;;5031335;28;19905;-23
2022/10/15 06:18:11;;;;;;;;;;;16.80;99.90;;;;;;5031611;28;20332;-23
2022/10/15 06:20:37;;;;;;;;;;;16.80;99.90;;;;;;5031516;28;19999;-23
2022/10/15 06:23:03;;;;;;;;;;;16.80;99.90;;;;;;5030940;28;19966;-23
2022/10/15 06:25:29;;;;;;;;;;;16.80;99.90;;;;;;5031420;28;19924;-23
2022/10/15 06:27:54;;;;;;;;;;;16.80;99.90;;;;;;5031349;28;19905;-23
2022/10/15 06:30:20;;;;;;;;;;;16.80;99.90;;;;;;5031592;28;20012;-23
2022/10/15 06:32:50;;;;;;;;;;;16.80;99.90;;;;;;5031223;28;19916;-23
2022/10/15 06:35:16;;;;;;;;;;;16.80;99.90;;;;;;5031351;28;19996;-23
2022/10/15 06:37:41;;;;;;;;;;;16.80;99.90;;;;;;5031109;28;19948;-23
2022/10/15 06:40:07;;;;;;;;;;;16.80;99.90;;;;;;5031617;28;19971;-23
2022/10/15 06:42:33;;;;;;;;;;;16.80;99.90;;;;;;5032703;28;20064;-23
2022/10/15 06:44:58;;;;;;;;;;;16.80;99.90;;;;;;5035110;28;20015;-23
2022/10/15 06:47:24;;;;;;;;;;;16.80;99.90;;;;;;5035035;28;20000;-23
2022/10/15 06:49:50;;;;;;;;;;;16.80;99.90;;;;;;5034991;28;20064;-23
2022/10/15 06:52:15;;;;;;;;;;;16.80;99.90;;;;;;5035253;28;20317;-23
2022/10/15 06:54:41;;;;;;;;;;;16.70;99.90;;;;;;5034576;28;20394;-23
2022/10/15 06:57:06;;;;;;;;;;;16.80;99.90;;;;;;5034801;28;20372;-23
2022/10/15 06:59:32;;;;;;;;;;;16.80;99.90;;;;;;5034717;28;19931;-23
2022/10/15 07:01:57;;;;;;;;;;;16.80;99.90;;;;;;5034786;28;20662;-23
2022/10/15 07:04:23;;;;;;;;;;;16.80;99.90;;;;;;5034656;28;19955;-23
2022/10/15 07:06:48;;;;;;;;;;;16.80;99.90;;;;;;5035096;28;19916;-23
2022/10/15 07:09:14;;;;;;;;;;;16.70;99.90;;;;;;5035593;28;19916;-23
2022/10/15 07:11:40;;;;;;;;;;;16.80;99.90;;;;;;5034000;28;19912;-23
2022/10/15 07:14:05;;;;;;;;;;;16.80;99.90;;;;;;5034715;28;19909;-23
2022/10/15 07:16:31;;;;;;;;;;;16.80;99.90;;;;;;5035146;28;19909;-23
2022/10/15 07:18:56;;;;;;;;;;;16.70;99.90;;;;;;5034927;28;19911;-23
2022/10/15 07:21:22;;;;;;;;;;;16.80;99.90;;;;;;5033081;28;20008;-23
2022/10/15 07:23:47;;;;;;;;;;;16.80;99.90;;;;;;5034116;28;19920;-23
2022/10/15 07:26:13;;;;;;;;;;;16.80;99.90;;;;;;5035021;28;19905;-24
2022/10/15 07:28:39;;;;;;;;;;;16.70;99.90;;;;;;5034488;28;19955;-24
2022/10/15 07:31:06;;;;;;;;;;;16.80;99.90;;;;;;5034902;28;19905;-23
2022/10/15 07:33:34;;;;;;;;;;;16.70;99.90;;;;;;5034522;28;19908;-23
2022/10/15 07:36:05;;;;;;;;;;;16.70;99.90;;;;;;5033440;28;19955;-23
2022/10/15 07:38:30;;;;;;;;;;;16.70;99.90;;;;;;5034249;28;19905;-24
2022/10/15 07:40:57;;;;;;;;;;;16.70;99.90;;;;;;5034855;28;19912;-24
2022/10/15 07:43:22;;;;;;;;;;;16.80;99.90;;;;;;5035980;28;19909;-24
2022/10/15 07:45:48;;;;;;;;;;;16.70;99.90;;;;;;5035929;28;19905;-24
2022/10/15 07:48:14;;;;;;;;;;;16.80;99.90;;;;;;5033576;28;19916;-24
2022/10/15 07:50:40;;;;;;;;;;;16.70;99.90;;;;;;5035651;28;19905;-24
2022/10/15 07:53:05;;;;;;;;;;;16.80;99.90;;;;;;5034621;28;19909;-24
2022/10/15 07:55:31;;;;;;;;;;;16.70;99.90;;;;;;5034502;28;19905;-24
2022/10/15 07:57:57;;;;;;;;;;;16.80;99.90;;;;;;5035370;28;19997;-24
2022/10/15 08:00:22;;;;;;;;;;;16.80;99.90;;;;;;5033903;28;19905;-24
2022/10/15 08:02:48;;;;;;;;;;;16.80;99.90;;;;;;5034926;28;19916;-24
2022/10/15 08:05:13;;;;;;;;;;;16.80;99.90;;;;;;5035127;28;20374;-24
2022/10/15 08:07:40;;;;;;;;;;;16.80;99.90;;;;;;5034469;28;19909;-24
2022/10/15 08:10:07;;;;;;;;;;;16.80;99.90;;;;;;5034362;28;19932;-24
2022/10/15 08:12:32;;;;;;;;;;;16.80;99.90;;;;;;5033302;28;19963;-24
2022/10/15 08:14:58;;;;;;;;;;;16.70;99.90;;;;;;5034723;28;19905;-24
2022/10/15 08:17:23;;;;;;;;;;;16.70;99.90;;;;;;5033910;28;19913;-24
2022/10/15 08:19:49;;;;;;;;;;;16.60;99.90;;;;;;5033821;28;20028;-24
2022/10/15 08:22:14;;;;;;;;;;;16.60;99.90;;;;;;5033506;28;20544;-24
2022/10/15 08:24:40;;;;;;;;;;;16.60;99.90;;;;;;5033299;28;19912;-24
2022/10/15 08:27:05;;;;;;;;;;;16.70;99.90;;;;;;5033709;28;19905;-24
2022/10/15 08:29:31;;;;;;;;;;;16.70;99.90;;;;;;5033868;28;20008;-24
2022/10/15 08:31:56;;;;;;;;;;;16.70;99.90;;;;;;5033783;28;19909;-24
2022/10/15 08:34:22;;;;;;;;;;;16.70;99.90;;;;;;5033665;28;19947;-24
2022/10/15 08:36:47;;;;;;;;;;;16.70;99.90;;;;;;5033852;28;19973;-23
2022/10/15 08:39:13;;;;;;;;;;;16.70;99.90;;;;;;5034399;28;20346;-23
2022/10/15 08:41:41;;;;;;;;;;;16.70;99.90;;;;;;5036030;28;20595;-24
2022/10/15 08:44:14;;;;;;;;;;;16.80;99.90;;;;;;5036201;28;20309;-23
2022/10/15 08:46:43;;;;;;;;;;;16.70;99.90;;;;;;5033895;28;19930;-24
2022/10/15 08:49:40;;;;;;;;;;;16.70;99.90;;;;;;5033317;28;20007;-24
2022/10/15 08:52:17;;;;;;;;;;;16.70;99.90;;;;;;5011218;28;20398;-24
2022/10/15 08:54:43;;;;;;;;;;;16.80;99.90;;;;;;5039439;28;20336;-24
2022/10/15 08:57:27;;;;;;;;;;;16.80;99.90;;;;;;5041887;28;19955;-24
2022/10/15 09:00:13;;;;;;;;;;;16.80;99.90;;;;;;5040562;28;19912;-24
2022/10/15 09:03:00;;;;;;;;;;;16.70;99.90;;;;;;5026690;28;19928;-24
2022/10/15 09:05:28;;;;;;;;;;;16.80;99.90;;;;;;5033409;28;20371;-24
2022/10/15 09:08:03;;;;;;;;;;;16.80;99.90;;;;;;5032852;28;20366;-24
2022/10/15 09:10:37;;;;;;;;;;;16.80;99.90;;;;;;5033220;28;19996;-24
2022/10/15 09:13:13;;;;;;;;;;;16.80;99.90;;;;;;5031968;28;19947;-24
2022/10/15 09:15:44;;;;;;;;;;;16.80;99.90;;;;;;5034374;28;19966;-24
2022/10/15 09:18:15;;;;;;;;;;;16.70;99.90;;;;;;5034792;28;19917;-24
2022/10/15 09:20:41;;;;;;;;;;;16.70;99.90;;;;;;5033690;28;19905;-24
2022/10/15 09:23:18;;;;;;;;;;;16.80;99.90;;;;;;5033220;28;19915;-24
2022/10/15 09:25:46;;;;;;;;;;;16.80;99.90;;;;;;5033914;28;19912;-24
2022/10/15 09:28:15;;;;;;;;;;;16.70;99.90;;;;;;5034009;28;20431;-24
2022/10/15 09:30:41;;;;;;;;;;;16.80;99.90;;;;;;5033979;28;19905;-24
2022/10/15 09:33:17;;;;;;;;;;;16.80;99.90;;;;;;5033556;28;19909;-24
2022/10/15 09:35:42;;;;;;;;;;;16.80;99.90;;;;;;5033462;28;19905;-24
2022/10/15 09:38:13;;;;;;;;;;;16.90;99.90;;;;;;5033540;28;19959;-23
2022/10/15 09:41:02;;;;;;;;;;;16.90;99.90;;;;;;5032196;28;19959;-24
2022/10/15 09:43:35;;;;;;;;;;;16.90;99.90;;;;;;5026749;28;19905;-24
2022/10/15 09:46:03;;;;;;;;;;;17.00;99.90;;;;;;5032563;28;19905;-24
2022/10/15 09:48:36;;;;;;;;;;;17.00;99.90;;;;;;5032164;28;20290;-24
2022/10/15 09:51:09;;;;;;;;;;;17.10;99.90;;;;;;5034469;28;19951;-24
2022/10/15 09:53:44;;;;;;;;;;;17.10;99.90;;;;;;5032565;28;19920;-24
2022/10/15 09:56:09;;;;;;;;;;;17.20;99.90;;;;;;5032885;28;20011;-24
2022/10/15 09:58:37;;;;;;;;;;;17.20;99.90;;;;;;5032163;28;20396;-24
2022/10/15 10:01:04;;;;;;;;;;;17.30;99.90;;;;;;5031904;28;19995;-24
2022/10/15 10:03:31;;;;;;;;;;;17.30;99.90;;;;;;5031913;28;19913;-24
2022/10/15 10:06:07;;;;;;;;;;;17.40;99.90;;;;;;5032103;28;20321;-24
2022/10/15 10:08:37;;;;;;;;;;;17.40;99.90;;;;;;5032666;28;19905;-24
2022/10/15 10:11:03;;;;;;;;;;;17.50;99.90;;;;;;5031974;28;19905;-24
2022/10/15 10:13:41;;;;;;;;;;;17.50;99.90;;;;;;5030348;28;19919;-24
2022/10/15 10:16:10;;;;;;;;;;;17.60;99.90;;;;;;5032831;28;19915;-23
2022/10/15 10:18:39;;;;;;;;;;;17.60;99.90;;;;;;5035257;28;20112;-24
2022/10/15 10:21:22;;;;;;;;;;;17.70;99.90;;;;;;5036239;28;19905;-24
2022/10/15 10:23:47;;;;;;;;;;;17.70;99.90;;;;;;5035672;28;20248;-24
2022/10/15 10:26:13;;;;;;;;;;;17.70;99.90;;;;;;5036251;28;19905;-24
2022/10/15 10:28:59;;;;;;;;;;;17.80;99.90;;;;;;5035754;28;19909;-24
2022/10/15 10:31:26;;;;;;;;;;;17.80;99.90;;;;;;5035352;28;19905;-23
2022/10/15 10:33:52;;;;;;;;;;;17.80;99.90;;;;;;5035557;28;19913;-24
2022/10/15 10:36:29;;;;;;;;;;;17.90;99.90;;;;;;5035362;28;19928;-24
2022/10/15 10:38:57;;;;;;;;;;;17.90;99.90;;;;;;5035146;28;20326;-24
2022/10/15 10:41:43;;;;;;;;;;;17.90;99.90;;;;;;5035375;28;19912;-24
2022/10/15 10:44:16;;;;;;;;;;;17.90;99.90;;;;;;5035444;28;19909;-24
2022/10/15 10:46:42;;;;;;;;;;;17.90;99.90;;;;;;5035981;28;20304;-24
2022/10/15 10:49:07;;;;;;;;;;;17.90;99.90;;;;;;5035617;28;19916;-24
2022/10/15 10:51:47;;;;;;;;;;;17.80;99.90;;;;;;5035275;28;19927;-24
2022/10/15 10:54:13;;;;;;;;;;;17.80;99.90;;;;;;5035072;28;19934;-24
2022/10/15 10:56:42;;;;;;;;;;;17.70;99.90;;;;;;5035222;28;19952;-24
2022/10/15 10:59:08;;;;;;;;;;;17.70;99.90;;;;;;5034835;28;19944;-24
2022/10/15 11:01:33;;;;;;;;;;;17.70;99.90;;;;;;5035017;28;19947;-24
2022/10/15 11:03:59;;;;;;;;;;;17.70;99.90;;;;;;5034792;28;19916;-24
2022/10/15 11:06:34;;;;;;;;;;;17.70;99.90;;;;;;5034810;28;20358;-24
2022/10/15 11:09:05;;;;;;;;;;;17.70;99.90;;;;;;5034832;28;19908;-24
2022/10/15 11:11:46;;;;;;;;;;;17.70;99.90;;;;;;5034821;28;20053;-24
2022/10/15 11:14:20;;;;;;;;;;;17.60;99.90;;;;;;5034397;28;19909;-24
2022/10/15 11:16:56;;;;;;;;;;;17.60;99.90;;;;;;5034584;28;19912;-24
2022/10/15 11:19:22;;;;;;;;;;;17.60;99.90;;;;;;5034488;28;19905;-24
2022/10/15 11:22:02;;;;;;;;;;;17.60;99.90;;;;;;5034735;28;20254;-24
2022/10/15 11:24:32;;;;;;;;;;;17.60;99.90;;;;;;5033135;28;19971;-24
2022/10/15 11:27:13;;;;;;;;;;;17.60;99.90;;;;;;5034746;28;20300;-24
2022/10/15 11:29:43;;;;;;;;;;;17.60;99.90;;;;;;5034494;28;19909;-24
2022/10/15 11:32:12;;;;;;;;;;;17.50;99.90;;;;;;5034360;28;19913;-24
2022/10/15 11:34:49;;;;;;;;;;;17.50;99.90;;;;;;5034295;28;19905;-24
2022/10/15 11:37:27;;;;;;;;;;;17.50;99.90;;;;;;5034420;28;19905;-24
2022/10/15 11:40:11;;;;;;;;;;;17.50;99.90;;;;;;5033190;28;19905;-24
2022/10/15 11:42:57;;;;;;;;;;;17.50;99.90;;;;;;5034083;28;19952;-24
2022/10/15 11:45:23;;;;;;;;;;;17.50;99.90;;;;;;5034326;28;19912;-24
2022/10/15 11:47:54;;;;;;;;;;;17.50;99.90;;;;;;5034166;28;19905;-24
2022/10/15 11:50:26;;;;;;;;;;;17.50;99.90;;;;;;5034471;28;19909;-24
2022/10/15 11:53:17;;;;;;;;;;;17.50;99.90;;;;;;5033755;28;19984;-24
2022/10/15 11:55:45;;;;;;;;;;;17.50;99.90;;;;;;5020596;28;19905;-24
2022/10/15 11:58:20;;;;;;;;;;;17.50;99.90;;;;;;5035299;28;20671;-24
2022/10/15 12:00:49;;;;;;;;;;;17.50;99.90;;;;;;5033983;28;19905;-24
2022/10/15 12:03:21;;;;;;;;;;;17.50;99.90;;;;;;5033967;28;19905;-24
2022/10/15 12:05:52;;;;;;;;;;;17.50;99.90;;;;;;5033747;28;19984;-24
2022/10/15 12:08:18;;;;;;;;;;;17.50;99.90;;;;;;5033966;28;20000;-24
2022/10/15 12:11:02;;;;;;;;;;;17.50;99.90;;;;;;5033992;28;19905;-24
2022/10/15 12:13:31;;;;;;;;;;;17.50;99.90;;;;;;5033464;28;20278;-24
2022/10/15 12:15:59;;;;;;;;;;;17.50;99.90;;;;;;5033475;28;19951;-24
2022/10/15 12:18:37;;;;;;;;;;;17.50;99.90;;;;;;5033357;28;19906;-24
2022/10/15 12:21:03;;;;;;;;;;;17.50;99.90;;;;;;5033503;28;19909;-24
2022/10/15 12:23:37;;;;;;;;;;;17.50;99.90;;;;;;5032282;28;19959;-24
2022/10/15 12:26:22;;;;;;;;;;;17.50;99.90;;;;;;5033623;28;19962;-24
2022/10/15 12:28:49;;;;;;;;;;;17.50;99.90;;;;;;5033227;28;19913;-24
2022/10/15 12:31:19;;;;;;;;;;;17.50;99.90;;;;;;5033363;28;20289;-24
2022/10/15 12:33:48;;;;;;;;;;;17.50;99.90;;;;;;5033098;28;19915;-24
2022/10/15 12:36:27;;;;;;;;;;;17.40;99.90;;;;;;5033497;28;19905;-24
2022/10/15 12:39:06;;;;;;;;;;;17.50;99.90;;;;;;5033023;28;19905;-24
2022/10/15 12:41:37;;;;;;;;;;;17.50;99.90;;;;;;5031580;28;19908;-24
2022/10/15 12:44:14;;;;;;;;;;;17.40;99.90;;;;;;5032678;28;19912;-24
2022/10/15 12:46:39;;;;;;;;;;;17.50;99.90;;;;;;5032990;28;20102;-24
2022/10/15 12:49:23;;;;;;;;;;;17.50;99.90;;;;;;5032940;28;19909;-24
2022/10/15 12:51:49;;;;;;;;;;;17.50;99.90;;;;;;5033269;28;19912;-24
2022/10/15 12:54:34;;;;;;;;;;;17.40;99.90;;;;;;5032418;28;19913;-24
2022/10/15 12:57:00;;;;;;;;;;;17.40;99.90;;;;;;5032211;28;19944;-24
2022/10/15 12:59:44;;;;;;;;;;;17.40;99.90;;;;;;5033056;28;19957;-24
2022/10/15 13:02:28;;;;;;;;;;;17.40;99.90;;;;;;5032826;28;19909;-24
2022/10/15 13:04:53;;;;;;;;;;;17.40;99.90;;;;;;5031684;28;19996;-24
2022/10/15 13:07:19;;;;;;;;;;;17.40;99.90;;;;;;5031556;28;19948;-24
2022/10/15 13:09:44;;;;;;;;;;;17.40;99.90;;;;;;5033084;28;20366;-24
2022/10/15 13:12:20;;;;;;;;;;;17.40;99.90;;;;;;5033108;28;19971;-24
2022/10/15 13:14:49;;;;;;;;;;;17.40;99.90;;;;;;5030955;28;19932;-24
2022/10/15 13:17:15;;;;;;;;;;;17.40;99.90;;;;;;5032468;28;19905;-24
2022/10/15 13:20:06;;;;;;;;;;;17.40;99.90;;;;;;5032787;28;19955;-24
2022/10/15 13:22:33;;;;;;;;;;;17.40;99.90;;;;;;5030600;28;19928;-24
2022/10/15 13:24:58;;;;;;;;;;;17.40;99.90;;;;;;5032840;28;19905;-23
2022/10/15 13:27:31;;;;;;;;;;;17.40;99.90;;;;;;5032992;28;20428;-24
2022/10/15 13:30:00;;;;;;;;;;;17.40;99.90;;;;;;5032994;28;19981;-24
2022/10/15 13:32:27;;;;;;;;;;;17.40;99.90;;;;;;5032729;28;19909;-23
2022/10/15 13:34:53;;;;;;;;;;;17.40;99.90;;;;;;5032472;28;20008;-24
2022/10/15 13:37:23;;;;;;;;;;;17.40;99.90;;;;;;5032862;28;19952;-23
2022/10/15 13:39:49;;;;;;;;;;;17.30;99.90;;;;;;5032322;28;19905;-24
2022/10/15 13:42:16;;;;;;;;;;;17.30;99.90;;;;;;5032128;28;19905;-23
2022/10/15 13:44:56;;;;;;;;;;;17.30;99.90;;;;;;5032775;28;20304;-23
2022/10/15 13:47:33;;;;;;;;;;;17.40;99.90;;;;;;5031838;28;19916;-23
2022/10/15 13:50:16;;;;;;;;;;;17.30;99.90;;;;;;5031910;28;19940;-24
2022/10/15 13:52:44;;;;;;;;;;;17.30;99.90;;;;;;5030767;28;19936;-23
2022/10/15 13:55:21;;;;;;;;;;;17.40;99.90;;;;;;5031669;28;19952;-23
2022/10/15 13:57:47;;;;;;;;;;;17.30;99.90;;;;;;5031824;28;19960;-23
2022/10/15 14:00:24;;;;;;;;;;;17.30;99.90;;;;;;5031637;28;19908;-23
2022/10/15 14:03:11;;;;;;;;;;;17.30;99.90;;;;;;5031498;28;19909;-23
2022/10/15 14:05:37;;;;;;;;;;;17.30;99.90;;;;;;5032079;28;20397;-23
2022/10/15 14:08:02;;;;;;;;;;;17.30;99.90;;;;;;5031849;28;19905;-23
2022/10/15 14:10:28;;;;;;;;;;;17.30;99.90;;;;;;5031808;28;19909;-23
2022/10/15 14:12:53;;;;;;;;;;;17.30;99.90;;;;;;5030011;28;19959;-23
2022/10/15 14:15:57;;;;;;;;;;;17.30;99.90;;;;;;5031646;28;20389;-24
2022/10/15 14:18:49;;;;;;;;;;;17.30;99.90;;;;;;4990048;28;19917;-24
2022/10/15 14:21:17;;;;;;;;;;;17.30;99.90;;;;;;5018214;28;19913;-24
2022/10/15 14:23:44;;;;;;;;;;;17.30;99.90;;;;;;5031462;28;19972;-24
2022/10/15 14:26:10;;;;;;;;;;;17.40;99.90;;;;;;5031400;28;20198;-24
2022/10/15 14:28:36;;;;;;;;;;;17.40;99.90;;;;;;5031593;28;20049;-24